sensor_id;sensor_type;location;lat;lon;timestamp;pressure;altitude;pressure_sealevel;temperature;humidity
56600;BME280;51832;48.152;11.530;2023-04-20T00:04:28;95361.03;;;9.89;70.87
56600;BME280;51832;48.152;11.530;2023-04-20T00:09:29;95353.00;;;9.66;71.29
56600;BME280;51832;48.152;11.530;2023-04-20T00:14:29;95333.28;;;9.39;71.78
56600;BME280;51832;48.152;11.530;2023-04-20T00:19:29;95330.78;;;9.44;72.72
56600;BME280;51832;48.152;11.530;2023-04-20T00:24:32;95326.94;;;9.28;72.64
56600;BME280;51832;48.152;11.530;2023-04-20T00:29:32;95328.50;;;9.11;71.97
56600;BME280;51832;48.152;11.530;2023-04-20T00:34:33;95319.91;;;9.22;72.28
56600;BME280;51832;48.152;11.530;2023-04-20T00:39:34;95312.66;;;9.17;72.84
56600;BME280;51832;48.152;11.530;2023-04-20T00:44:34;95301.81;;;9.32;72.01
56600;BME280;51832;48.152;11.530;2023-04-20T00:49:35;95292.53;;;9.54;70.92
56600;BME280;51832;48.152;11.530;2023-04-20T00:54:35;95288.25;;;9.72;70.49
56600;BME280;51832;48.152;11.530;2023-04-20T00:59:35;95278.66;;;9.47;70.73
56600;BME280;51832;48.152;11.530;2023-04-20T01:04:36;95271.78;;;9.46;71.24
56600;BME280;51832;48.152;11.530;2023-04-20T01:09:37;95265.00;;;9.20;71.43
56600;BME280;51832;48.152;11.530;2023-04-20T01:14:38;95256.69;;;9.23;72.52
56600;BME280;51832;48.152;11.530;2023-04-20T01:19:38;95243.94;;;8.84;74.08
56600;BME280;51832;48.152;11.530;2023-04-20T01:24:40;95244.16;;;9.25;71.75
56600;BME280;51832;48.152;11.530;2023-04-20T01:29:40;95250.47;;;9.18;72.62
56600;BME280;51832;48.152;11.530;2023-04-20T01:34:41;95255.72;;;9.00;73.31
56600;BME280;51832;48.152;11.530;2023-04-20T01:39:41;95251.56;;;9.47;71.63
56600;BME280;51832;48.152;11.530;2023-04-20T01:44:42;95252.16;;;9.67;70.88
56600;BME280;51832;48.152;11.530;2023-04-20T01:49:43;95237.09;;;9.74;69.83
56600;BME280;51832;48.152;11.530;2023-04-20T01:54:43;95228.13;;;9.82;69.31
56600;BME280;51832;48.152;11.530;2023-04-20T01:59:44;95230.28;;;9.18;71.86
56600;BME280;51832;48.152;11.530;2023-04-20T02:04:44;95219.34;;;9.40;71.62
56600;BME280;51832;48.152;11.530;2023-04-20T02:09:44;95211.44;;;9.58;70.70
56600;BME280;51832;48.152;11.530;2023-04-20T02:14:45;95214.31;;;9.20;71.76
56600;BME280;51832;48.152;11.530;2023-04-20T02:19:45;95203.91;;;9.13;71.21
56600;BME280;51832;48.152;11.530;2023-04-20T02:24:46;95208.69;;;9.35;70.54
56600;BME280;51832;48.152;11.530;2023-04-20T02:29:46;95210.28;;;9.54;69.46
56600;BME280;51832;48.152;11.530;2023-04-20T02:34:46;95213.22;;;9.09;71.30
56600;BME280;51832;48.152;11.530;2023-04-20T02:39:47;95212.28;;;9.22;70.14
56600;BME280;51832;48.152;11.530;2023-04-20T02:44:47;95211.31;;;9.16;70.80
56600;BME280;51832;48.152;11.530;2023-04-20T02:49:48;95200.91;;;9.28;69.09
56600;BME280;51832;48.152;11.530;2023-04-20T02:54:48;95193.31;;;9.38;68.24
56600;BME280;51832;48.152;11.530;2023-04-20T02:59:49;95184.38;;;9.57;68.05
56600;BME280;51832;48.152;11.530;2023-04-20T03:04:49;95192.72;;;9.18;70.08
56600;BME280;51832;48.152;11.530;2023-04-20T03:09:49;95185.25;;;8.78;71.15
56600;BME280;51832;48.152;11.530;2023-04-20T03:14:50;95184.66;;;9.01;71.10
56600;BME280;51832;48.152;11.530;2023-04-20T03:19:50;95174.41;;;8.93;71.13
56600;BME280;51832;48.152;11.530;2023-04-20T03:24:51;95166.91;;;8.97;70.88
56600;BME280;51832;48.152;11.530;2023-04-20T03:29:51;95165.81;;;9.22;69.86
56600;BME280;51832;48.152;11.530;2023-04-20T03:34:52;95157.28;;;9.57;83.13
56600;BME280;51832;48.152;11.530;2023-04-20T03:39:52;95161.25;;;13.27;74.88
56600;BME280;51832;48.152;11.530;2023-04-20T03:44:53;95157.22;;;13.63;68.90
56600;BME280;51832;48.152;11.530;2023-04-20T03:49:53;95146.28;;;14.08;65.53
56600;BME280;51832;48.152;11.530;2023-04-20T03:54:54;95150.38;;;14.47;60.89
56600;BME280;51832;48.152;11.530;2023-04-20T03:59:57;95144.75;;;13.36;54.86
56600;BME280;51832;48.152;11.530;2023-04-20T04:04:58;95140.44;;;11.63;61.05
56600;BME280;51832;48.152;11.530;2023-04-20T04:09:58;95135.94;;;10.72;63.73
56600;BME280;51832;48.152;11.530;2023-04-20T04:14:58;95141.00;;;9.96;66.12
56600;BME280;51832;48.152;11.530;2023-04-20T04:19:59;95142.91;;;9.89;66.43
56600;BME280;51832;48.152;11.530;2023-04-20T04:24:59;95135.41;;;9.93;66.38
56600;BME280;51832;48.152;11.530;2023-04-20T04:30:00;95133.50;;;9.70;67.76
56600;BME280;51832;48.152;11.530;2023-04-20T04:35:02;95129.81;;;9.71;67.64
56600;BME280;51832;48.152;11.530;2023-04-20T04:40:03;95126.16;;;9.60;67.90
56600;BME280;51832;48.152;11.530;2023-04-20T04:45:06;95129.50;;;9.68;67.21
56600;BME280;51832;48.152;11.530;2023-04-20T04:50:09;95125.09;;;9.32;69.36
56600;BME280;51832;48.152;11.530;2023-04-20T04:55:10;95130.34;;;9.32;69.33
56600;BME280;51832;48.152;11.530;2023-04-20T05:00:11;95135.16;;;9.53;69.52
56600;BME280;51832;48.152;11.530;2023-04-20T05:05:12;95120.53;;;9.27;70.62
56600;BME280;51832;48.152;11.530;2023-04-20T05:10:12;95131.41;;;9.12;71.31
56600;BME280;51832;48.152;11.530;2023-04-20T05:15:12;95138.13;;;8.72;72.56
56600;BME280;51832;48.152;11.530;2023-04-20T05:20:13;95133.16;;;9.18;71.52
56600;BME280;51832;48.152;11.530;2023-04-20T05:25:13;95143.38;;;9.08;71.60
56600;BME280;51832;48.152;11.530;2023-04-20T05:30:14;95138.84;;;8.79;72.02
56600;BME280;51832;48.152;11.530;2023-04-20T05:35:15;95126.50;;;8.43;73.60
56600;BME280;51832;48.152;11.530;2023-04-20T05:40:15;95131.00;;;8.36;73.42
56600;BME280;51832;48.152;11.530;2023-04-20T05:45:16;95130.00;;;8.55;73.57
56600;BME280;51832;48.152;11.530;2023-04-20T05:50:16;95124.66;;;8.86;72.75
56600;BME280;51832;48.152;11.530;2023-04-20T05:55:17;95137.91;;;8.73;73.39
56600;BME280;51832;48.152;11.530;2023-04-20T06:00:19;95127.63;;;8.90;71.80
56600;BME280;51832;48.152;11.530;2023-04-20T06:05:20;95122.38;;;8.90;72.13
56600;BME280;51832;48.152;11.530;2023-04-20T06:10:21;95121.91;;;8.38;73.33
56600;BME280;51832;48.152;11.530;2023-04-20T06:15:21;95120.91;;;8.58;73.99
56600;BME280;51832;48.152;11.530;2023-04-20T06:20:22;95119.28;;;8.38;73.93
56600;BME280;51832;48.152;11.530;2023-04-20T06:25:23;95120.78;;;8.71;73.05
56600;BME280;51832;48.152;11.530;2023-04-20T06:30:23;95112.84;;;8.96;73.04
56600;BME280;51832;48.152;11.530;2023-04-20T06:35:23;95107.53;;;8.84;71.87
56600;BME280;51832;48.152;11.530;2023-04-20T06:40:27;95093.88;;;8.94;71.57
56600;BME280;51832;48.152;11.530;2023-04-20T06:45:28;95083.81;;;8.90;72.46
56600;BME280;51832;48.152;11.530;2023-04-20T06:50:29;95095.94;;;8.30;73.41
56600;BME280;51832;48.152;11.530;2023-04-20T06:55:29;95096.50;;;8.94;71.92
56600;BME280;51832;48.152;11.530;2023-04-20T07:00:29;95095.78;;;8.68;72.92
56600;BME280;51832;48.152;11.530;2023-04-20T07:05:30;95091.97;;;8.64;73.51
56600;BME280;51832;48.152;11.530;2023-04-20T07:10:31;95086.00;;;8.75;73.36
56600;BME280;51832;48.152;11.530;2023-04-20T07:15:31;95084.69;;;9.03;71.84
56600;BME280;51832;48.152;11.530;2023-04-20T07:20:31;95091.50;;;9.22;70.38
56600;BME280;51832;48.152;11.530;2023-04-20T07:25:32;95086.94;;;9.47;69.33
56600;BME280;51832;48.152;11.530;2023-04-20T07:30:32;95095.91;;;9.10;71.36
56600;BME280;51832;48.152;11.530;2023-04-20T07:35:33;95116.75;;;8.68;72.90
56600;BME280;51832;48.152;11.530;2023-04-20T07:40:33;95129.38;;;8.96;71.16
56600;BME280;51832;48.152;11.530;2023-04-20T07:45:33;95128.34;;;8.61;73.63
56600;BME280;51832;48.152;11.530;2023-04-20T07:50:34;95140.72;;;8.53;73.90
56600;BME280;51832;48.152;11.530;2023-04-20T07:55:35;95134.03;;;8.76;72.75
56600;BME280;51832;48.152;11.530;2023-04-20T08:00:35;95115.47;;;8.09;73.23
56600;BME280;51832;48.152;11.530;2023-04-20T08:05:38;95120.94;;;8.33;74.71
56600;BME280;51832;48.152;11.530;2023-04-20T08:10:39;95112.03;;;8.59;72.65
56600;BME280;51832;48.152;11.530;2023-04-20T08:15:40;95092.16;;;8.87;71.93
56600;BME280;51832;48.152;11.530;2023-04-20T08:20:40;95106.13;;;9.00;71.71
56600;BME280;51832;48.152;11.530;2023-04-20T08:25:41;95111.38;;;8.81;72.16
56600;BME280;51832;48.152;11.530;2023-04-20T08:30:41;95097.09;;;9.14;70.43
56600;BME280;51832;48.152;11.530;2023-04-20T08:35:42;95105.25;;;9.54;69.27
56600;BME280;51832;48.152;11.530;2023-04-20T08:40:43;95094.91;;;9.41;70.00
56600;BME280;51832;48.152;11.530;2023-04-20T08:45:45;95089.06;;;8.90;71.50
56600;BME280;51832;48.152;11.530;2023-04-20T08:50:49;95098.16;;;9.54;69.52
56600;BME280;51832;48.152;11.530;2023-04-20T08:55:49;95102.44;;;9.67;68.17
56600;BME280;51832;48.152;11.530;2023-04-20T09:00:50;95112.53;;;9.22;70.75
56600;BME280;51832;48.152;11.530;2023-04-20T09:05:50;95110.31;;;9.67;68.83
56600;BME280;51832;48.152;11.530;2023-04-20T09:10:51;95097.19;;;9.79;68.76
56600;BME280;51832;48.152;11.530;2023-04-20T09:15:51;95114.97;;;10.07;67.10
56600;BME280;51832;48.152;11.530;2023-04-20T09:20:51;95109.47;;;10.08;66.47
56600;BME280;51832;48.152;11.530;2023-04-20T09:25:52;95109.47;;;9.96;67.43
56600;BME280;51832;48.152;11.530;2023-04-20T09:30:53;95114.38;;;10.05;66.94
56600;BME280;51832;48.152;11.530;2023-04-20T09:36:02;95100.63;;;10.21;66.86
56600;BME280;51832;48.152;11.530;2023-04-20T09:41:03;95115.66;;;10.14;66.09
56600;BME280;51832;48.152;11.530;2023-04-20T09:46:05;95089.56;;;9.47;70.15
56600;BME280;51832;48.152;11.530;2023-04-20T09:51:06;95091.84;;;8.59;73.25
56600;BME280;51832;48.152;11.530;2023-04-20T09:56:07;95073.41;;;9.32;70.89
56600;BME280;51832;48.152;11.530;2023-04-20T10:01:09;95080.03;;;9.35;71.24
56600;BME280;51832;48.152;11.530;2023-04-20T10:06:24;95078.34;;;9.10;70.96
56600;BME280;51832;48.152;11.530;2023-04-20T10:11:33;95058.03;;;9.89;68.90
56600;BME280;51832;48.152;11.530;2023-04-20T10:16:34;95062.22;;;9.67;69.24
56600;BME280;51832;48.152;11.530;2023-04-20T10:21:46;95083.00;;;10.21;67.50
56600;BME280;51832;48.152;11.530;2023-04-20T10:26:47;95079.34;;;10.57;65.45
56600;BME280;51832;48.152;11.530;2023-04-20T10:31:47;95073.38;;;10.62;65.51
56600;BME280;51832;48.152;11.530;2023-04-20T10:36:48;95058.19;;;10.41;66.65
56600;BME280;51832;48.152;11.530;2023-04-20T10:41:53;95056.81;;;10.50;65.91
56600;BME280;51832;48.152;11.530;2023-04-20T10:46:54;95053.03;;;10.57;64.89
56600;BME280;51832;48.152;11.530;2023-04-20T10:51:55;95059.44;;;10.61;66.53
56600;BME280;51832;48.152;11.530;2023-04-20T10:56:56;95048.72;;;10.91;64.92
56600;BME280;51832;48.152;11.530;2023-04-20T11:01:56;95044.69;;;11.00;63.61
56600;BME280;51832;48.152;11.530;2023-04-20T11:07:06;95025.34;;;11.07;64.14
56600;BME280;51832;48.152;11.530;2023-04-20T11:12:09;95023.56;;;10.84;64.91
56600;BME280;51832;48.152;11.530;2023-04-20T11:17:14;95028.72;;;11.19;64.29
56600;BME280;51832;48.152;11.530;2023-04-20T11:22:21;95012.59;;;11.15;63.21
56600;BME280;51832;48.152;11.530;2023-04-20T11:27:22;95015.03;;;10.77;65.61
56600;BME280;51832;48.152;11.530;2023-04-20T11:32:24;95014.63;;;11.42;64.04
56600;BME280;51832;48.152;11.530;2023-04-20T11:37:25;95007.06;;;11.62;61.90
56600;BME280;51832;48.152;11.530;2023-04-20T11:42:27;95005.63;;;11.54;63.03
56600;BME280;51832;48.152;11.530;2023-04-20T11:47:27;95003.78;;;11.55;62.40
56600;BME280;51832;48.152;11.530;2023-04-20T11:52:28;95003.34;;;11.58;62.84
56600;BME280;51832;48.152;11.530;2023-04-20T11:57:28;94983.19;;;11.68;63.17
56600;BME280;51832;48.152;11.530;2023-04-20T12:02:28;94991.41;;;11.38;62.03
56600;BME280;51832;48.152;11.530;2023-04-20T12:07:29;94996.38;;;11.68;62.38
56600;BME280;51832;48.152;11.530;2023-04-20T12:12:29;95007.03;;;11.73;61.70
56600;BME280;51832;48.152;11.530;2023-04-20T12:17:30;94992.47;;;11.71;61.94
56600;BME280;51832;48.152;11.530;2023-04-20T12:22:30;94988.31;;;11.58;63.56
56600;BME280;51832;48.152;11.530;2023-04-20T12:27:30;94996.66;;;11.38;63.27
56600;BME280;51832;48.152;11.530;2023-04-20T12:32:31;94989.97;;;11.31;64.42
56600;BME280;51832;48.152;11.530;2023-04-20T12:37:31;94976.88;;;11.19;65.21
56600;BME280;51832;48.152;11.530;2023-04-20T12:42:32;94969.78;;;11.53;64.22
56600;BME280;51832;48.152;11.530;2023-04-20T12:47:32;94962.88;;;11.81;61.55
56600;BME280;51832;48.152;11.530;2023-04-20T12:52:33;94965.88;;;12.06;61.85
56600;BME280;51832;48.152;11.530;2023-04-20T12:57:33;94977.69;;;12.03;62.01
56600;BME280;51832;48.152;11.530;2023-04-20T13:02:34;94985.78;;;11.80;61.79
56600;BME280;51832;48.152;11.530;2023-04-20T13:07:34;94978.00;;;12.24;60.48
56600;BME280;51832;48.152;11.530;2023-04-20T13:12:35;94974.19;;;11.98;61.53
56600;BME280;51832;48.152;11.530;2023-04-20T13:17:35;94965.00;;;12.39;59.97
56600;BME280;51832;48.152;11.530;2023-04-20T13:22:37;94954.31;;;12.72;59.25
56600;BME280;51832;48.152;11.530;2023-04-20T13:27:38;94952.38;;;12.63;60.20
56600;BME280;51832;48.152;11.530;2023-04-20T13:32:38;94939.84;;;12.75;59.79
56600;BME280;51832;48.152;11.530;2023-04-20T13:37:40;94934.13;;;12.83;59.12
56600;BME280;51832;48.152;11.530;2023-04-20T13:42:40;94939.22;;;12.68;60.36
56600;BME280;51832;48.152;11.530;2023-04-20T13:47:41;94959.00;;;12.05;61.91
56600;BME280;51832;48.152;11.530;2023-04-20T13:52:42;94946.88;;;11.54;65.03
56600;BME280;51832;48.152;11.530;2023-04-20T13:57:42;94940.53;;;12.05;63.99
56600;BME280;51832;48.152;11.530;2023-04-20T14:02:42;94952.94;;;11.71;66.22
56600;BME280;51832;48.152;11.530;2023-04-20T14:07:43;94949.66;;;11.30;67.50
56600;BME280;51832;48.152;11.530;2023-04-20T14:12:43;94946.38;;;10.95;68.75
56600;BME280;51832;48.152;11.530;2023-04-20T14:17:44;94949.97;;;10.89;70.36
56600;BME280;51832;48.152;11.530;2023-04-20T14:22:44;94937.00;;;10.99;69.88
56600;BME280;51832;48.152;11.530;2023-04-20T14:27:45;94940.47;;;11.50;68.25
56600;BME280;51832;48.152;11.530;2023-04-20T14:32:56;94939.19;;;11.52;67.76
56600;BME280;51832;48.152;11.530;2023-04-20T14:37:56;94935.13;;;11.78;67.52
56600;BME280;51832;48.152;11.530;2023-04-20T14:42:57;94924.00;;;12.09;66.12
56600;BME280;51832;48.152;11.530;2023-04-20T14:47:57;94924.50;;;12.28;65.08
56600;BME280;51832;48.152;11.530;2023-04-20T14:52:58;94921.78;;;12.01;66.05
56600;BME280;51832;48.152;11.530;2023-04-20T14:57:58;94922.63;;;12.07;66.69
56600;BME280;51832;48.152;11.530;2023-04-20T15:02:58;94914.00;;;12.12;66.82
56600;BME280;51832;48.152;11.530;2023-04-20T15:07:59;94906.69;;;12.62;65.19
56600;BME280;51832;48.152;11.530;2023-04-20T15:13:00;94908.56;;;12.89;65.01
56600;BME280;51832;48.152;11.530;2023-04-20T15:18:00;94908.31;;;12.41;66.31
56600;BME280;51832;48.152;11.530;2023-04-20T15:23:00;94901.50;;;12.24;66.63
56600;BME280;51832;48.152;11.530;2023-04-20T15:28:01;94896.81;;;11.70;68.77
56600;BME280;51832;48.152;11.530;2023-04-20T15:33:01;94909.16;;;12.25;67.34
56600;BME280;51832;48.152;11.530;2023-04-20T15:38:02;94909.41;;;12.45;66.43
56600;BME280;51832;48.152;11.530;2023-04-20T15:43:02;94907.44;;;12.58;66.31
56600;BME280;51832;48.152;11.530;2023-04-20T15:48:03;94914.72;;;12.72;64.44
56600;BME280;51832;48.152;11.530;2023-04-20T15:53:03;94903.09;;;12.95;64.40
56600;BME280;51832;48.152;11.530;2023-04-20T15:58:04;94913.91;;;12.94;64.39
56600;BME280;51832;48.152;11.530;2023-04-20T16:03:04;94908.78;;;12.60;65.28
56600;BME280;51832;48.152;11.530;2023-04-20T16:08:05;94903.50;;;12.82;65.04
56600;BME280;51832;48.152;11.530;2023-04-20T16:13:06;94904.69;;;12.69;65.25
56600;BME280;51832;48.152;11.530;2023-04-20T16:18:06;94907.56;;;12.68;65.50
56600;BME280;51832;48.152;11.530;2023-04-20T16:23:06;94888.47;;;12.88;65.08
56600;BME280;51832;48.152;11.530;2023-04-20T16:28:07;94903.88;;;12.47;66.83
56600;BME280;51832;48.152;11.530;2023-04-20T16:33:07;94907.56;;;12.68;66.05
56600;BME280;51832;48.152;11.530;2023-04-20T16:38:08;94905.75;;;12.73;65.58
56600;BME280;51832;48.152;11.530;2023-04-20T16:43:09;94898.47;;;12.59;66.32
56600;BME280;51832;48.152;11.530;2023-04-20T16:48:09;94901.78;;;12.49;66.89
56600;BME280;51832;48.152;11.530;2023-04-20T16:53:10;94912.59;;;12.48;66.55
56600;BME280;51832;48.152;11.530;2023-04-20T16:58:10;94912.84;;;12.46;65.97
56600;BME280;51832;48.152;11.530;2023-04-20T17:03:11;94930.16;;;12.15;67.52
56600;BME280;51832;48.152;11.530;2023-04-20T17:08:12;94928.28;;;11.77;69.15
56600;BME280;51832;48.152;11.530;2023-04-20T17:13:13;94933.13;;;11.68;69.86
56600;BME280;51832;48.152;11.530;2023-04-20T17:18:13;94939.53;;;11.72;70.06
56600;BME280;51832;48.152;11.530;2023-04-20T17:23:17;94941.13;;;11.57;70.44
56600;BME280;51832;48.152;11.530;2023-04-20T17:28:18;94949.41;;;11.15;71.91
56600;BME280;51832;48.152;11.530;2023-04-20T17:33:18;94957.34;;;11.03;72.48
56600;BME280;51832;48.152;11.530;2023-04-20T17:38:19;94946.97;;;10.97;72.71
56600;BME280;51832;48.152;11.530;2023-04-20T17:43:20;94960.06;;;11.09;72.46
56600;BME280;51832;48.152;11.530;2023-04-20T17:48:20;94949.91;;;11.29;71.76
56600;BME280;51832;48.152;11.530;2023-04-20T17:53:20;94964.63;;;10.85;72.81
56600;BME280;51832;48.152;11.530;2023-04-20T17:58:21;94971.66;;;10.79;73.73
56600;BME280;51832;48.152;11.530;2023-04-20T18:03:22;94966.41;;;10.67;73.85
56600;BME280;51832;48.152;11.530;2023-04-20T18:08:22;94979.56;;;10.96;72.82
56600;BME280;51832;48.152;11.530;2023-04-20T18:13:23;95002.41;;;11.07;72.07
56600;BME280;51832;48.152;11.530;2023-04-20T18:18:23;95009.47;;;10.50;74.31
56600;BME280;51832;48.152;11.530;2023-04-20T18:23:25;95023.97;;;10.64;74.17
56600;BME280;51832;48.152;11.530;2023-04-20T18:28:26;95031.88;;;10.29;75.56
56600;BME280;51832;48.152;11.530;2023-04-20T18:33:26;95022.03;;;10.01;76.89
56600;BME280;51832;48.152;11.530;2023-04-20T18:38:27;95018.03;;;10.45;74.61
56600;BME280;51832;48.152;11.530;2023-04-20T18:43:27;95029.16;;;10.24;75.44
56600;BME280;51832;48.152;11.530;2023-04-20T18:48:28;95046.03;;;10.16;75.89
56600;BME280;51832;48.152;11.530;2023-04-20T18:53:28;95050.06;;;10.30;75.88
56600;BME280;51832;48.152;11.530;2023-04-20T18:58:30;95045.03;;;11.04;73.35
56600;BME280;51832;48.152;11.530;2023-04-20T19:03:31;95056.25;;;10.48;74.25
56600;BME280;51832;48.152;11.530;2023-04-20T19:08:31;95051.50;;;10.73;73.76
56600;BME280;51832;48.152;11.530;2023-04-20T19:13:33;95059.75;;;10.53;74.59
56600;BME280;51832;48.152;11.530;2023-04-20T19:18:33;95064.88;;;10.83;73.57
56600;BME280;51832;48.152;11.530;2023-04-20T19:23:33;95077.53;;;10.35;75.65
56600;BME280;51832;48.152;11.530;2023-04-20T19:28:35;95089.91;;;9.92;77.41
56600;BME280;51832;48.152;11.530;2023-04-20T19:33:36;95080.25;;;10.28;76.36
56600;BME280;51832;48.152;11.530;2023-04-20T19:38:36;95095.78;;;10.18;76.50
56600;BME280;51832;48.152;11.530;2023-04-20T19:43:37;95101.47;;;10.15;76.50
56600;BME280;51832;48.152;11.530;2023-04-20T19:48:38;95108.81;;;9.71;77.94
56600;BME280;51832;48.152;11.530;2023-04-20T19:53:38;95116.38;;;9.79;78.02
56600;BME280;51832;48.152;11.530;2023-04-20T19:58:38;95101.03;;;10.06;76.73
56600;BME280;51832;48.152;11.530;2023-04-20T20:03:39;95117.19;;;9.80;77.71
56600;BME280;51832;48.152;11.530;2023-04-20T20:08:39;95121.44;;;9.92;76.99
56600;BME280;51832;48.152;11.530;2023-04-20T20:13:40;95128.63;;;9.85;76.60
56600;BME280;51832;48.152;11.530;2023-04-20T20:18:40;95123.63;;;9.95;75.82
56600;BME280;51832;48.152;11.530;2023-04-20T20:23:41;95126.34;;;9.89;75.50
56600;BME280;51832;48.152;11.530;2023-04-20T20:28:41;95119.06;;;10.14;75.08
56600;BME280;51832;48.152;11.530;2023-04-20T20:33:41;95115.84;;;10.65;72.97
56600;BME280;51832;48.152;11.530;2023-04-20T20:38:42;95117.78;;;10.35;73.84
56600;BME280;51832;48.152;11.530;2023-04-20T20:43:42;95121.28;;;10.52;73.01
56600;BME280;51832;48.152;11.530;2023-04-20T20:48:43;95129.53;;;10.91;71.61
56600;BME280;51832;48.152;11.530;2023-04-20T20:53:43;95130.66;;;11.07;71.61
56600;BME280;51832;48.152;11.530;2023-04-20T20:58:43;95123.34;;;10.27;73.45
56600;BME280;51832;48.152;11.530;2023-04-20T21:03:44;95131.38;;;10.67;72.29
56600;BME280;51832;48.152;11.530;2023-04-20T21:08:46;95135.50;;;10.51;72.66
56600;BME280;51832;48.152;11.530;2023-04-20T21:13:47;95135.16;;;10.24;74.04
56600;BME280;51832;48.152;11.530;2023-04-20T21:18:48;95132.31;;;10.38;73.89
56600;BME280;51832;48.152;11.530;2023-04-20T21:23:49;95140.41;;;10.48;73.38
56600;BME280;51832;48.152;11.530;2023-04-20T21:28:49;95138.34;;;10.61;72.79
56600;BME280;51832;48.152;11.530;2023-04-20T21:33:50;95145.44;;;10.38;73.17
56600;BME280;51832;48.152;11.530;2023-04-20T21:38:50;95139.88;;;10.16;73.85
56600;BME280;51832;48.152;11.530;2023-04-20T21:43:51;95140.69;;;10.16;74.92
56600;BME280;51832;48.152;11.530;2023-04-20T21:48:52;95133.66;;;10.75;72.23
56600;BME280;51832;48.152;11.530;2023-04-20T21:53:52;95119.72;;;10.75;72.39
56600;BME280;51832;48.152;11.530;2023-04-20T21:58:53;95124.84;;;10.35;73.39
56600;BME280;51832;48.152;11.530;2023-04-20T22:03:53;95122.28;;;10.98;72.09
56600;BME280;51832;48.152;11.530;2023-04-20T22:08:53;95128.81;;;10.95;70.95
56600;BME280;51832;48.152;11.530;2023-04-20T22:13:55;95131.38;;;10.55;73.02
56600;BME280;51832;48.152;11.530;2023-04-20T22:18:56;95123.94;;;10.41;73.30
56600;BME280;51832;48.152;11.530;2023-04-20T22:23:57;95116.94;;;10.69;72.60
56600;BME280;51832;48.152;11.530;2023-04-20T22:28:58;95129.53;;;10.91;72.32
56600;BME280;51832;48.152;11.530;2023-04-20T22:33:58;95134.31;;;10.94;71.67
56600;BME280;51832;48.152;11.530;2023-04-20T22:38:58;95126.16;;;11.07;71.75
56600;BME280;51832;48.152;11.530;2023-04-20T22:43:59;95117.16;;;11.03;72.00
56600;BME280;51832;48.152;11.530;2023-04-20T22:48:59;95131.44;;;10.95;71.56
56600;BME280;51832;48.152;11.530;2023-04-20T22:54:00;95132.34;;;11.13;71.67
56600;BME280;51832;48.152;11.530;2023-04-20T22:59:02;95121.34;;;11.16;70.74
56600;BME280;51832;48.152;11.530;2023-04-20T23:04:02;95121.81;;;11.13;70.86
56600;BME280;51832;48.152;11.530;2023-04-20T23:09:03;95119.59;;;11.21;70.58
56600;BME280;51832;48.152;11.530;2023-04-20T23:14:07;95111.63;;;11.16;70.42
56600;BME280;51832;48.152;11.530;2023-04-20T23:19:08;95107.47;;;11.32;70.20
56600;BME280;51832;48.152;11.530;2023-04-20T23:24:08;95112.34;;;11.00;71.20
56600;BME280;51832;48.152;11.530;2023-04-20T23:29:09;95114.63;;;10.96;71.70
56600;BME280;51832;48.152;11.530;2023-04-20T23:34:09;95112.84;;;10.74;73.05
56600;BME280;51832;48.152;11.530;2023-04-20T23:39:10;95115.91;;;10.82;71.94
56600;BME280;51832;48.152;11.530;2023-04-20T23:44:10;95125.97;;;10.85;72.85
56600;BME280;51832;48.152;11.530;2023-04-20T23:49:10;95117.50;;;10.95;71.96
56600;BME280;51832;48.152;11.530;2023-04-20T23:54:11;95116.13;;;10.81;72.49
56600;BME280;51832;48.152;11.530;2023-04-20T23:59:11;95113.28;;;10.82;72.30
